Time;durP1;ratioP1;P1;durP2;ratioP2;P2;SDS_P1;SDS_P2;PMS_P1;PMS_P2;Temp;Humidity;BMP_temperature;BMP_pressure;BME280_temperature;BME280_humidity;BME280_pressure;Samples;Min_cycle;Max_cycle;Signal;HPM_P1;HPM_P2
2023/11/13 19:37:06;;;;;;;;;;;;;;;;;;1061106;27;20402;-64
2023/11/13 19:37:37;;;;;;;;;;;;;;;;;;1059000;28;19919;-68
2023/11/13 19:38:08;;;;;;;;;;;;;;;;;;1053905;28;19982;-66
2023/11/13 19:38:39;;;;;;;;;;;;;;;;;;1043458;28;20027;-67
2023/11/13 19:39:12;;;;;;;;;;;;;;;;;;1007037;28;19936;-68
2023/11/13 19:39:43;;;;;;;;;;;;;;;;;;1026630;28;87851;-68
2023/11/13 19:40:16;;;;;;;;;;;;;;;;;;1034590;28;20355;-71
2023/11/13 19:40:47;;;;;;;;;;;;;;;;;;1031320;28;19922;-72
2023/11/13 19:41:19;;;;;;;;;;;;;;;;;;1024892;28;19937;-71
2023/11/13 19:41:50;;;;;;;;;;;;;;;;;;1038325;28;19945;-70
2023/11/13 19:42:22;;;;;;;;;;;;;;;;;;1024575;28;116234;-70
2023/11/13 19:42:53;;;;;;;;;;;;;;;;;;1027835;28;19922;-71
2023/11/13 19:43:54;;;;;;;8.95;3.88;;;;;;;;;;1038872;27;20394;-65
2023/11/13 19:44:27;;;;;;;10.20;3.78;;;;;;;;;;1053585;28;20043;-60
2023/11/13 19:44:58;;;;;;;10.35;3.60;;;;;;;;;;1049559;28;20044;-61
2023/11/13 19:45:29;;;;;;;12.20;4.20;;;;;;;;;;1039263;28;20053;-59
2023/11/13 19:46:00;;;;;;;7.82;3.22;;;;;;;;;;1032784;28;68688;-60
2023/11/13 19:46:32;;;;;;;10.48;3.88;;;;;;;;;;1033486;28;20043;-59
2023/11/13 19:47:03;;;;;;;8.30;3.60;;;;;;;;;;1035059;28;20539;-60
2023/11/13 19:47:34;;;;;;;10.20;3.28;;;;;;;;;;1034991;28;20045;-61
2023/11/13 19:48:06;;;;;;;8.50;3.15;;;;;;;;;;1035547;28;20534;-60
2023/11/13 19:48:37;;;;;;;9.43;3.55;;;;;;;;;;1034829;28;20332;-61
2023/11/13 19:49:08;;;;;;;8.10;3.53;;;;;;;;;;1033616;28;20133;-61
2023/11/13 19:49:39;;;;;;;6.20;3.60;;;;;;;;;;1034343;28;20056;-61
2023/11/13 19:50:12;;;;;;;8.77;4.13;;;;;;;;;;1028102;28;20509;-60
2023/11/13 19:50:43;;;;;;;8.85;3.17;;;;;;;;;;1026415;28;20399;-60
2023/11/13 19:51:15;;;;;;;9.85;3.67;;;;;;;;;;1026529;28;20133;-60
2023/11/13 19:51:47;;;;;;;13.52;3.38;;;;;;;;;;1024224;28;79356;-61
2023/11/13 19:52:44;;;;;;;6.22;3.25;;;;;;;;;;350077;27;20497;-60
2023/11/13 19:52:55;;;;;;;7.50;3.50;;;;;;;;;;348042;27;9994;-64
2023/11/13 19:53:12;;;;;;;7.97;3.58;;;;;;;;;;343756;28;9751;-63
2023/11/13 19:53:30;;;;;;;8.25;3.40;;;;;;;;;;344186;28;39439;-60
2023/11/13 19:53:42;;;;;;;8.60;3.63;;;;;;;;;;342984;28;74456;-61
2023/11/13 19:53:54;;;;;;;9.52;3.60;;;;;;;;;;342645;28;44860;-61
2023/11/13 19:54:05;;;;;;;8.77;3.33;;;;;;;;;;341017;28;45095;-62
2023/11/13 19:54:24;;;;;;;7.95;3.35;;;;;;;;;;342803;28;33873;-62
2023/11/13 19:54:40;;;;;;;7.93;3.60;;;;;;;;;;342026;28;40295;-61
2023/11/13 19:54:56;;;;;;;6.75;3.47;;;;;;;;;;341984;28;40325;-61
2023/11/13 19:55:13;;;;;;;6.68;3.00;;;;;;;;;;342954;28;40471;-61
2023/11/13 19:55:25;;;;;;;9.07;3.28;;;;;;;;;;340695;28;74074;-61
2023/11/13 19:56:10;;;;;;;7.22;2.85;;;;;;;;;;347214;28;24954;-64
2023/11/13 19:56:54;;;;;;;12.32;3.30;;;;;;;;;;345461;27;24572;-63
2023/11/13 19:57:37;;;;;;;8.18;3.13;;;;;;;;;;322634;27;24517;-64
2023/11/13 19:58:21;;;;;;;5.53;3.35;;;;;;;;;;344784;27;25073;-61
2023/11/13 19:58:33;;;;;;;6.63;3.50;;;;;;;;;;338362;28;93186;-62
2023/11/13 19:59:03;;;;;;;12.43;2.45;;;;;;;;;;350321;27;24493;-63
2023/11/13 19:59:49;;;;;;;5.05;2.92;;;;;;;;;;345947;27;24523;-61
2023/11/13 20:00:20;;;;;;;5.28;2.88;;;;;;;;;;338088;27;21139;-61
2023/11/13 20:01:34;;;;;;;6.00;3.38;;;;;;;;;;348777;27;24500;-61
2023/11/13 20:01:59;;;;;;;6.82;3.50;;;;;;;;;;339769;27;20716;-63
2023/11/13 20:02:30;;;;;;;5.82;2.72;;;;;;;;;;338499;27;82197;-63
2023/11/13 20:03:15;;;;;;;7.03;3.25;;;;;;;;;;349487;27;24552;-61
2023/11/13 20:03:52;;;;;;;8.00;3.05;;;;;;;;;;349841;28;20951;-62
2023/11/13 20:04:25;;;;;;;6.05;3.17;;;;;;;;;;318920;27;142627;-62
2023/11/13 20:04:52;;;;;;;3.95;3.13;;;21.50;77.30;;;;;;347459;28;20823;-61
2023/11/13 20:05:36;;;;;;;7.82;2.97;;;;;;;;;;319376;27;79692;-64
2023/11/13 20:06:20;;;;;;;10.05;3.20;;;;;;;;;;349625;27;24509;-73
2023/11/13 20:06:56;;;;;;;7.80;2.88;;;;;;;;;;349900;27;20683;-66
2023/11/13 20:07:38;;;;;;;5.53;2.83;;;;;;;;;;319605;27;167964;-66
2023/11/13 20:08:20;;;;;;;8.95;3.45;;;;;;;;;;345817;27;87365;-67
2023/11/13 20:09:06;;;;;;;6.38;2.85;;;;;;;;;;352524;27;25084;-65
2023/11/13 20:09:30;;;;;;;8.35;3.95;;;;;;;;;;353978;27;21032;-66
2023/11/13 20:10:14;;;;;;;9.77;4.28;;;;;;;;;;341245;28;117422;-65
2023/11/13 20:10:59;;;;;;;10.68;5.22;;;;;;;;;;351081;27;20143;-68
2023/11/13 20:11:28;;;;;;;14.38;6.43;;;;;;;;;;319701;27;70859;-66
2023/11/13 20:12:19;;;;;;;19.27;6.43;;;;;;;;;;346769;27;25102;-65
2023/11/13 20:12:30;;;;;;;13.73;6.45;;;;;;;;;;346316;28;51830;-67
2023/11/13 20:12:42;;;;;;;15.65;7.03;;;;;;;;;;343134;28;71692;-76
2023/11/13 20:12:53;;;;;;;19.42;7.70;;;;;;;;;;343646;28;1294;-65
2023/11/13 20:13:04;;;;;;;19.38;7.43;;;;;;;;;;345054;28;1636;-66
2023/11/13 20:13:45;;;;;;;12.25;5.57;;;;;;;;;;352496;27;24496;-63
2023/11/13 20:13:57;;;;;;;17.35;6.88;;;;;;;;;;350559;28;34912;-64
2023/11/13 20:14:22;;;;;;;20.20;7.40;;;;;;;;;;350003;27;20756;-65
2023/11/13 20:14:33;;;;;;;20.83;8.05;;;;;;;;;;350437;28;1311;-69
2023/11/13 20:14:44;;;;;;;22.30;8.13;;;;;;;;;;347662;28;1407;-63
2023/11/13 20:14:55;;;;;;;21.15;8.35;;;;;;;;;;346301;28;1285;-64
2023/11/13 20:15:07;;;;;;;21.63;8.57;;;;;;;;;;339398;28;81280;-65
2023/11/13 20:15:48;;;;;;;21.60;7.88;;;;;;;;;;349758;27;20388;-68
2023/11/13 20:16:00;;;;;;;19.33;8.05;;;;;;;;;;349007;28;1496;-71
2023/11/13 20:16:11;;;;;;;20.10;8.02;;;;;;;;;;346452;28;1311;-71
2023/11/13 20:16:22;;;;;;;21.83;7.93;;;;;;;;;;346364;28;1272;-71
2023/11/13 20:16:33;;;;;;;24.98;8.38;;;;;;;;;;345029;28;1441;-71
2023/11/13 20:16:44;;;;;;;23.35;8.25;;;;;;;;;;345052;28;1270;-71
2023/11/13 20:16:58;;;;;;;21.88;8.40;;;;;;;;;;343637;28;1362;-71
2023/11/13 20:17:10;;;;;;;19.40;8.18;;;;;;;;;;342348;28;1489;-71
2023/11/13 20:17:23;;;;;;;22.00;8.23;;;;;;;;;;345113;28;1316;-71
2023/11/13 20:17:34;;;;;;;22.75;8.43;;;;;;;;;;346056;28;1559;-71
2023/11/13 20:17:45;;;;;;;24.05;8.95;;;;;;;;;;346079;28;1388;-71
2023/11/13 20:17:57;;;;;;;23.77;8.63;;;;;;;;;;345009;28;1508;-71
2023/11/13 20:18:09;;;;;;;23.48;8.38;;;;;;;;;;341130;28;1465;-71
2023/11/13 20:18:22;;;;;;;22.65;8.13;;;;;;;;;;344935;28;1479;-70
2023/11/13 20:18:33;;;;;;;22.52;8.82;;;;;;;;;;345057;28;1190;-71
2023/11/13 20:18:44;;;;;;;22.98;8.85;;;;;;;;;;346458;28;1313;-70
2023/11/13 20:18:55;;;;;;;21.33;8.95;;;;;;;;;;344984;28;1278;-71
2023/11/13 20:19:06;;;;;;;22.23;8.90;;;;;;;;;;342402;28;1302;-70
2023/11/13 20:19:17;;;;;;;24.67;9.07;;;;;;;;;;343785;28;1282;-72
2023/11/13 20:19:29;;;;;;;23.15;8.48;;;;;;;;;;340106;28;11051;-70
2023/11/13 20:19:43;;;;;;;22.00;8.30;;;;;;;;;;334994;28;141632;-72
2023/11/13 20:19:54;;;;;;;23.80;8.77;;;;;;;;;;340204;29;1534;-72
2023/11/13 20:20:09;;;;;;;24.15;8.85;;;;;;;;;;338464;28;11464;-72
2023/11/13 20:20:20;;;;;;;25.98;9.40;;;;;;;;;;338966;28;9343;-75
2023/11/13 20:20:31;;;;;;;27.45;9.77;;;;;;;;;;339026;29;14018;-69
2023/11/13 20:20:42;;;;;;;26.45;9.63;;;;;;;;;;343258;28;1418;-71
2023/11/13 20:20:53;;;;;;;25.13;9.02;;;;;;;;;;342447;28;1290;-70
2023/11/13 20:21:05;;;;;;;22.98;8.45;;;;;;;;;;343776;28;1597;-71
2023/11/13 20:21:16;;;;;;;22.45;8.70;;;;;;;;;;343634;28;1291;-71
2023/11/13 20:21:27;;;;;;;20.08;8.63;;;;;;;;;;341050;29;1637;-71
2023/11/13 20:21:42;;;;;;;22.75;8.95;;;;;;;;;;341422;28;1947;-70
2023/11/13 20:21:53;;;;;;;22.50;8.70;;;;;;;;;;342125;28;2008;-72
2023/11/13 20:22:04;;;;;;;22.95;8.88;;;;;;;;;;342389;28;1289;-72
2023/11/13 20:22:18;;;;;;;23.13;9.10;;;;;;;;;;344836;28;2384;-65
2023/11/13 20:22:29;;;;;;;25.10;9.40;;;;;;;;;;345010;28;921;-71
2023/11/13 20:22:41;;;;;;;24.40;9.57;;;;;;;;;;343682;28;1211;-71
2023/11/13 20:22:52;;;;;;;24.52;9.75;;;;;;;;;;346422;28;1430;-71
2023/11/13 20:23:04;;;;;;;27.10;9.98;;;;;;;;;;342372;28;1539;-73
2023/11/13 20:23:15;;;;;;;25.95;9.68;;;;;;;;;;342371;28;1426;-73
2023/11/13 20:23:28;;;;;;;24.45;9.25;;;;;;;;;;343680;28;1522;-73
2023/11/13 20:23:39;;;;;;;22.98;8.98;;;;;;;;;;342765;28;2219;-71
2023/11/13 20:23:50;;;;;;;24.38;8.98;;;;;;;;;;342264;28;1386;-71
2023/11/13 20:24:02;;;;;;;24.35;8.98;;;;;;;;;;342325;28;1263;-72
2023/11/13 20:24:13;;;;;;;23.67;8.82;;;;;;;;;;341037;28;1311;-72
2023/11/13 20:24:24;;;;;;;21.63;8.68;;;;;;;;;;340912;29;1450;-72
2023/11/13 20:24:36;;;;;;;23.58;8.80;;;;;;;;;;341022;28;1495;-72
2023/11/13 20:24:48;;;;;;;24.10;9.05;;;;;;;;;;341022;29;1660;-69
2023/11/13 20:24:59;;;;;;;26.20;9.13;;;;;;;;;;339727;29;1689;-72
2023/11/13 20:25:10;;;;;;;24.50;9.20;;;;;;;;;;341041;29;1307;-71
2023/11/13 20:25:21;;;;;;;24.67;9.27;;;;;;;;;;340998;29;1299;-71
2023/11/13 20:25:32;;;;;;;22.63;9.25;;;;;;;;;;341024;28;1302;-71
2023/11/13 20:25:43;;;;;;;21.48;9.00;;;;;;;;;;340980;29;1692;-70
2023/11/13 20:25:55;;;;;;;21.20;8.85;;;;;;;;;;339334;28;88787;-72
2023/11/13 20:26:08;;;;;;;24.23;8.98;;;;;;;;;;342567;28;1553;-73
2023/11/13 20:26:19;;;;;;;24.40;9.40;;;;;;;;;;342346;28;1435;-71
2023/11/13 20:26:30;;;;;;;24.15;9.38;;;;;;;;;;338584;29;1660;-69
2023/11/13 20:26:41;;;;;;;21.85;9.05;;;;;;;;;;339526;29;1483;-71
2023/11/13 20:26:52;;;;;;;21.60;8.68;;;;;;;;;;342249;28;1430;-69
2023/11/13 20:27:04;;;;;;;21.40;8.63;;;;;;;;;;343705;28;1570;-73
2023/11/13 20:27:18;;;;;;;25.35;9.10;;;;;;;;;;342268;28;1420;-70
2023/11/13 20:27:29;;;;;;;23.45;8.98;;;;;;;;;;343446;28;2059;-69
2023/11/13 20:27:40;;;;;;;22.23;8.80;;;;;;;;;;345064;28;1309;-69
2023/11/13 20:27:52;;;;;;;22.98;9.15;;;;;;;;;;341015;28;1467;-70
2023/11/13 20:28:03;;;;;;;22.48;9.68;;;;;;;;;;342296;28;2099;-71
2023/11/13 20:28:14;;;;;;;23.50;9.63;;;;;;;;;;343588;28;1317;-71
2023/11/13 20:28:25;;;;;;;24.83;9.10;;;;;;;;;;343596;28;1418;-71
2023/11/13 20:28:37;;;;;;;25.75;9.00;;;;;;;;;;342331;28;1776;-70
2023/11/13 20:28:48;;;;;;;26.20;9.20;;;;;;;;;;342310;28;1300;-71
2023/11/13 20:28:59;;;;;;;26.70;8.95;;;;;;;;;;339687;29;1437;-71
2023/11/13 20:29:10;;;;;;;26.48;9.07;;;;;;;;;;343684;28;1312;-70
2023/11/13 20:29:22;;;;;;;25.27;8.98;;;;;;;;;;344918;28;1962;-71
2023/11/13 20:29:33;;;;;;;22.95;8.55;;;;;;;;;;343667;28;1398;-71
2023/11/13 20:29:45;;;;;;;21.83;8.23;;;;;;;;;;345059;28;1507;-72
2023/11/13 20:29:57;;;;;;;21.48;8.18;;;;;;;;;;341032;28;1457;-70
2023/11/13 20:30:08;;;;;;;20.50;8.35;;;;;;;;;;343720;28;1296;-70
2023/11/13 20:30:19;;;;;;;22.77;8.82;;;;;;;;;;343699;28;1275;-70
2023/11/13 20:30:30;;;;;;;26.27;9.15;;;;;;;;;;342325;28;1412;-70
2023/11/13 20:30:41;;;;;;;26.00;9.40;;;;;;;;;;342305;28;1512;-70
2023/11/13 20:30:53;;;;;;;22.73;8.88;;;;;;;;;;341074;28;1596;-70
2023/11/13 20:31:04;;;;;;;22.42;8.95;;;;;;;;;;343735;28;1587;-71
2023/11/13 20:31:15;;;;;;;23.92;9.32;;;;;;;;;;342299;28;1486;-71
2023/11/13 20:31:26;;;;;;;23.75;9.32;;;;;;;;;;345031;28;1523;-70
2023/11/13 20:31:37;;;;;;;23.08;9.05;;;;;;;;;;343701;28;1293;-71
2023/11/13 20:31:48;;;;;;;22.10;8.63;;;;;;;;;;343692;28;1506;-71
2023/11/13 20:31:59;;;;;;;21.63;8.25;;;;;;;;;;342357;28;1483;-71
2023/11/13 20:32:10;;;;;;;20.80;8.07;;;;;;;;;;339757;29;1300;-70
2023/11/13 20:32:22;;;;;;;20.25;8.27;;;;;;;;;;341104;29;1307;-71
2023/11/13 20:32:33;;;;;;;20.30;8.43;;;;;;;;;;343716;28;1281;-72
2023/11/13 20:32:45;;;;;;;20.23;8.40;;;;;;;;;;342267;28;1395;-71
2023/11/13 20:32:56;;;;;;;19.05;8.68;;;;;;;;;;343668;28;1312;-71
2023/11/13 20:33:07;;;;;;;20.90;9.32;;;;;;;;;;343670;28;1285;-71
2023/11/13 20:33:18;;;;;;;21.48;9.02;;;;;;;;;;341069;28;1306;-70
2023/11/13 20:33:31;;;;;;;24.02;8.95;;;;;;;;;;340883;29;2456;-71
2023/11/13 20:33:42;;;;;;;23.20;8.40;;;;;;;;;;340992;28;1621;-71
2023/11/13 20:33:58;;;;;;;21.90;8.52;;;;;;;;;;343659;28;1589;-71
2023/11/13 20:34:09;;;;;;;21.95;8.95;;;;;;;;;;345036;28;1208;-71
2023/11/13 20:34:20;;;;;;;24.50;9.10;;;;;;;;;;343670;28;1224;-70
2023/11/13 20:34:32;;;;;;;24.30;8.55;;;;;;;;;;341002;28;1560;-71
2023/11/13 20:34:43;;;;;;;21.20;8.48;;;;;;;;;;340990;29;1677;-71
2023/11/13 20:34:54;;;;;;;21.33;8.63;;;;;;;;;;343672;28;1311;-71
2023/11/13 20:35:06;;;;;;;22.23;9.13;;;;;;;;;;343627;28;1574;-71
2023/11/13 20:35:19;;;;;;;23.33;9.18;;;;;;;;;;343582;28;1977;-71
2023/11/13 20:35:30;;;;;;;22.05;8.80;;;;;;;;;;343702;28;1630;-70
2023/11/13 20:35:41;;;;;;;24.20;9.25;;;;;;;;;;342367;28;1446;-71
2023/11/13 20:35:53;;;;;;;24.80;9.30;;;;;;;;;;342319;28;1363;-71
2023/11/13 20:36:04;;;;;;;25.90;9.20;;;;;;;;;;345105;28;1350;-71
2023/11/13 20:36:15;;;;;;;21.33;8.75;;;;;;;;;;342411;28;1341;-71
2023/11/13 20:36:26;;;;;;;21.27;8.70;;;;;;;;;;342370;28;1573;-71
2023/11/13 20:36:38;;;;;;;19.60;8.70;;;;;;;;;;341069;28;1351;-72
2023/11/13 20:36:49;;;;;;;21.83;9.10;;;;;;;;;;342330;28;1638;-71
2023/11/13 20:37:00;;;;;;;24.57;9.43;;;;;;;;;;342401;28;1563;-70
2023/11/13 20:37:11;;;;;;;24.65;9.40;;;;;;;;;;339710;29;1373;-71
2023/11/13 20:37:22;;;;;;;22.92;8.95;;;;;;;;;;339668;29;1304;-71
2023/11/13 20:37:34;;;;;;;23.15;8.70;;;;;;;;;;339760;29;1382;-71
2023/11/13 20:37:45;;;;;;;24.92;9.43;;;;;;;;;;342294;28;1307;-71
2023/11/13 20:37:56;;;;;;;24.05;9.30;;;;;;;;;;343670;28;1773;-71
2023/11/13 20:38:08;;;;;;;23.02;9.32;;;;;;;;;;342361;28;1326;-72
2023/11/13 20:38:19;;;;;;;21.90;8.90;;;;;;;;;;339727;28;1225;-71
2023/11/13 20:38:30;;;;;;;22.85;8.82;;;;;;;;;;342389;28;1315;-71
2023/11/13 20:38:42;;;;;;;22.77;8.82;;;;;;;;;;342250;28;1593;-71
2023/11/13 20:38:53;;;;;;;22.60;8.65;;;;;;;;;;342378;28;1477;-71
2023/11/13 20:39:04;;;;;;;21.42;8.60;;;;;;;;;;339764;28;1303;-71
2023/11/13 20:39:15;;;;;;;21.77;8.82;;;;;;;;;;341043;29;1370;-71
2023/11/13 20:39:26;;;;;;;21.67;9.10;;;;;;;;;;343633;28;1431;-71
2023/11/13 20:39:38;;;;;;;24.42;9.25;;;;;;;;;;342422;28;1562;-71
2023/11/13 20:39:49;;;;;;;24.38;9.40;;;;;;;;;;343714;28;1460;-71
2023/11/13 20:40:00;;;;;;;24.77;9.32;;;;;;;;;;343569;28;1447;-70
2023/11/13 20:40:11;;;;;;;23.08;9.52;;;;;;;;;;341066;29;1292;-70
2023/11/13 20:40:22;;;;;;;21.83;9.00;;;;;;;;;;343695;28;1308;-71
2023/11/13 20:40:34;;;;;;;21.00;8.68;;;;;;;;;;340948;29;1360;-71
2023/11/13 20:40:45;;;;;;;20.92;8.48;;;;;;;;;;341087;29;1277;-70
2023/11/13 20:40:57;;;;;;;22.50;8.95;;;;;;;;;;341063;29;1278;-71
2023/11/13 20:41:08;;;;;;;21.85;8.80;;;;;;;;;;339666;29;1366;-71
2023/11/13 20:41:19;;;;;;;20.23;8.25;;;;;;;;;;342373;28;1692;-70
2023/11/13 20:41:30;;;;;;;18.23;8.32;;;;;;;;;;343735;28;1536;-71
2023/11/13 20:41:41;;;;;;;18.70;8.77;;;;;;;;;;342285;28;1530;-69
2023/11/13 20:41:54;;;;;;;19.63;9.05;;;;;;;;;;341159;28;1938;-70
2023/11/13 20:42:05;;;;;;;18.88;8.85;;;;;;;;;;341050;29;1286;-70
2023/11/13 20:42:17;;;;;;;19.98;9.23;;;;;;;;;;339640;29;1358;-69
2023/11/13 20:42:28;;;;;;;20.80;9.32;;;;;;;;;;342293;28;1534;-70
2023/11/13 20:42:39;;;;;;;20.17;8.98;;;;;;;;;;341060;28;1371;-70
2023/11/13 20:42:51;;;;;;;20.85;8.75;;;;;;;;;;339690;29;1295;-71
2023/11/13 20:43:02;;;;;;;20.88;8.40;;;;;;;;;;340913;28;1474;-70
2023/11/13 20:43:13;;;;;;;20.52;8.18;;;;;;;;;;340968;28;1349;-70
2023/11/13 20:43:24;;;;;;;19.27;8.30;;;;;;;;;;340979;29;1450;-69
2023/11/13 20:43:36;;;;;;;19.38;8.65;;;;;;;;;;339687;29;1406;-70
2023/11/13 20:43:47;;;;;;;19.45;8.25;;;;;;;;;;339649;29;1523;-70
2023/11/13 20:43:59;;;;;;;21.92;8.75;;;;;;;;;;339568;29;1391;-70
2023/11/13 20:44:11;;;;;;;23.88;8.95;;;;;;;;;;341057;29;1658;-69
2023/11/13 20:44:22;;;;;;;23.58;8.85;;;;;;;;;;339646;29;1486;-70
2023/11/13 20:44:33;;;;;;;22.65;8.40;;;;;;;;;;340877;29;1520;-69
2023/11/13 20:44:44;;;;;;;20.45;8.20;;;;;;;;;;341030;29;1307;-69
2023/11/13 20:44:55;;;;;;;23.23;8.48;;;;;;;;;;343300;28;1421;-70
2023/11/13 20:45:07;;;;;;;23.13;8.85;;;;;;;;;;343661;28;1290;-71
2023/11/13 20:45:18;;;;;;;22.30;8.85;;;;;;;;;;341015;28;1042;-71
2023/11/13 20:45:29;;;;;;;19.15;8.43;;;;;;;;;;342286;28;1435;-71
2023/11/13 20:45:40;;;;;;;18.75;7.72;;;;;;;;;;342228;28;1954;-71
2023/11/13 20:45:52;;;;;;;20.05;7.82;;;;;;;;;;343603;28;1302;-71
2023/11/13 20:46:03;;;;;;;21.63;8.50;;;;;;;;;;343679;28;1327;-71
2023/11/13 20:46:14;;;;;;;22.65;8.77;;;;;;;;;;342230;28;1501;-71
2023/11/13 20:46:25;;;;;;;20.38;8.25;;;;;;;;;;341024;29;1324;-71
2023/11/13 20:46:37;;;;;;;20.42;8.13;;;;;;;;;;341042;29;1386;-71
2023/11/13 20:46:48;;;;;;;19.77;8.40;;;;;;;;;;343550;28;1479;-71
2023/11/13 20:46:59;;;;;;;20.52;8.95;;;;;;;;;;344978;28;1495;-71
2023/11/13 20:47:10;;;;;;;19.08;8.90;;;;;;;;;;345026;28;1322;-70
2023/11/13 20:47:21;;;;;;;19.30;8.73;;;;;;;;;;343498;28;1514;-70
2023/11/13 20:47:33;;;;;;;19.52;8.45;;;;;;;;;;340649;28;1626;-72
2023/11/13 20:47:44;;;;;;;21.65;8.43;;;;;;;;;;341905;28;1276;-71
2023/11/13 20:47:55;;;;;;;21.75;8.35;;;;;;;;;;343593;28;1493;-71
2023/11/13 20:48:06;;;;;;;22.55;8.43;;;;;;;;;;344976;28;1745;-71
2023/11/13 20:48:18;;;;;;;20.08;7.90;;;;;;;;;;342269;28;1484;-70
2023/11/13 20:48:29;;;;;;;22.17;8.18;;;;;;;;;;342305;28;1330;-71
2023/11/13 20:48:40;;;;;;;20.55;8.15;;;;;;;;;;340972;28;1414;-71
2023/11/13 20:48:52;;;;;;;21.92;8.38;;;;;;;;;;340849;29;1283;-71
2023/11/13 20:49:03;;;;;;;21.15;8.43;;;;;;;;;;340967;29;1319;-72
2023/11/13 20:49:14;;;;;;;20.58;8.30;;;;;;;;;;340921;29;1288;-71
2023/11/13 20:49:25;;;;;;;19.60;8.25;;;;;;;;;;341040;28;1458;-72
2023/11/13 20:49:36;;;;;;;18.52;8.23;;;;;;;;;;339710;29;1315;-72
2023/11/13 20:49:49;;;;;;;18.48;8.00;;;;;;;;;;339646;29;1347;-74
2023/11/13 20:50:00;;;;;;;16.70;7.40;;;;;;;;;;339687;29;1450;-70
2023/11/13 20:50:12;;;;;;;18.35;7.82;;;;;;;;;;342365;28;1607;-73
2023/11/13 20:50:25;;;;;;;18.83;8.05;;;;;;;;;;342289;28;1440;-72
2023/11/13 20:50:37;;;;;;;19.75;8.27;;;;;;;;;;342275;28;1576;-71
2023/11/13 20:50:48;;;;;;;20.92;8.20;;;;;;;;;;343726;28;1271;-72
2023/11/13 20:50:59;;;;;;;21.35;8.25;;;;;;;;;;343681;28;1699;-73
2023/11/13 20:51:11;;;;;;;19.85;8.20;;;;;;;;;;342287;28;1397;-73
2023/11/13 20:51:22;;;;;;;18.67;8.10;;;;;;;;;;340927;29;1622;-68
2023/11/13 20:51:33;;;;;;;20.70;8.05;;;;;;;;;;342361;28;1530;-71
2023/11/13 20:51:44;;;;;;;22.13;7.90;;;;;;;;;;343671;28;1425;-69
2023/11/13 20:51:55;;;;;;;20.27;7.97;;;;;;;;;;342909;28;1464;-72
2023/11/13 20:52:07;;;;;;;19.38;8.25;;;;;;;;;;343741;28;1531;-70
2023/11/13 20:52:18;;;;;;;18.27;8.25;;;;;;;;;;340977;29;1367;-72
2023/11/13 20:52:29;;;;;;;20.00;8.50;;;;;;;;;;343390;28;1445;-72
2023/11/13 20:52:40;;;;;;;18.90;8.10;;;;;;;;;;342320;28;1401;-72
2023/11/13 20:52:52;;;;;;;19.65;8.25;;;;;;;;;;342287;28;1349;-68
2023/11/13 20:53:03;;;;;;;19.33;8.43;;;;;;;;;;343616;28;1277;-72
2023/11/13 20:53:14;;;;;;;19.83;8.38;;;;;;;;;;339639;29;1357;-71
2023/11/13 20:53:25;;;;;;;18.73;7.88;;;;;;;;;;342217;28;1356;-72
2023/11/13 20:53:36;;;;;;;17.83;7.80;;;;;;;;;;340938;29;1454;-70
2023/11/13 20:53:48;;;;;;;17.30;7.87;;;;;;;;;;340981;29;1290;-73
2023/11/13 20:53:59;;;;;;;16.92;7.93;;;;;;;;;;340661;29;1353;-71
2023/11/13 20:54:10;;;;;;;15.45;7.40;;;;;;;;;;341033;29;1288;-72
2023/11/13 20:54:21;;;;;;;13.82;7.00;;;;;;;;;;343717;28;1364;-73
2023/11/13 20:54:32;;;;;;;14.45;6.93;;;;;;;;;;343656;28;1280;-72
2023/11/13 20:54:44;;;;;;;14.65;6.90;;;;;;;;;;342287;28;1506;-73
2023/11/13 20:54:55;;;;;;;15.82;7.40;;;;;;;;;;343602;28;1287;-69
2023/11/13 20:55:07;;;;;;;16.95;7.88;;;;;;;;;;340988;28;1422;-69
2023/11/13 20:55:18;;;;;;;17.80;8.07;;;;;;;;;;340913;29;1915;-72
2023/11/13 20:55:29;;;;;;;19.25;8.30;;;;;;;;;;342231;28;1315;-71
2023/11/13 20:55:40;;;;;;;20.25;8.15;;;;;;;;;;342340;28;1474;-70
2023/11/13 20:55:52;;;;;;;21.10;8.45;;;;;;;;;;342324;28;1638;-67
2023/11/13 20:56:03;;;;;;;20.83;8.55;;;;;;;;;;342313;28;918;-67
2023/11/13 20:56:14;;;;;;;19.88;8.50;;;;;;;;;;342352;28;1453;-67
2023/11/13 20:56:26;;;;;;;17.67;7.85;;;;;;;;;;339837;29;1271;-72
2023/11/13 20:56:37;;;;;;;16.58;7.57;;;;;;;;;;342741;28;1469;-71
2023/11/13 20:56:48;;;;;;;16.50;7.85;;;;;;;;;;342583;28;1524;-69
2023/11/13 20:56:59;;;;;;;18.90;8.38;;;;;;;;;;342683;28;1431;-71
2023/11/13 20:57:10;;;;;;;21.67;8.43;;;;;;;;;;344081;28;1508;-70
2023/11/13 20:57:22;;;;;;;21.27;8.18;;;;;;;;;;342522;28;1315;-70
2023/11/13 20:57:35;;;;;;;18.90;8.18;;;;;;;;;;342336;28;1468;-71
2023/11/13 20:57:46;;;;;;;16.88;7.85;;;;;;;;;;340987;28;1457;-74
2023/11/13 20:57:57;;;;;;;16.42;7.20;;;;;;;;;;343492;28;1504;-74
2023/11/13 20:58:08;;;;;;;18.05;7.22;;;;;;;;;;343566;28;1336;-74
2023/11/13 20:58:19;;;;;;;20.90;7.63;;;;;;;;;;342354;28;1291;-72
2023/11/13 20:58:30;;;;;;;20.23;7.80;;;;;;;;;;342353;28;1331;-75
2023/11/13 20:58:43;;;;;;;20.08;7.68;;;;;;;;;;340953;28;1280;-70
2023/11/13 20:58:56;;;;;;;18.33;7.75;;;;;;;;;;339635;29;1213;-70
2023/11/13 20:59:08;;;;;;;19.95;8.15;;;;;;;;;;339612;29;1273;-71
2023/11/13 20:59:19;;;;;;;18.85;7.93;;;;;;;;;;339551;29;1547;-69
2023/11/13 20:59:31;;;;;;;18.35;7.60;;;;;;;;;;339663;29;1327;-71
2023/11/13 20:59:43;;;;;;;18.27;7.85;;;;;;;;;;339584;29;1322;-68
2023/11/13 20:59:54;;;;;;;17.75;7.72;;;;;;;;;;342235;28;1740;-72
2023/11/13 21:00:08;;;;;;;15.85;7.55;;;;;;;;;;340999;29;1351;-71
2023/11/13 21:00:20;;;;;;;15.80;7.25;;;;;;;;;;342236;28;1336;-69
2023/11/13 21:00:31;;;;;;;16.63;7.00;;;;;;;;;;339748;29;1506;-71
2023/11/13 21:00:42;;;;;;;16.73;7.28;;;;;;;;;;342453;28;1269;-73
2023/11/13 21:00:53;;;;;;;17.55;7.25;;;;;;;;;;341247;28;1449;-72
2023/11/13 21:01:05;;;;;;;16.95;7.22;;;;;;;;;;340980;29;1337;-73
2023/11/13 21:01:16;;;;;;;16.80;7.37;;;;;;;;;;343767;28;2192;-72
2023/11/13 21:01:28;;;;;;;15.75;7.38;;;;;;;;;;342594;28;3132;-70
2023/11/13 21:01:39;;;;;;;16.15;7.10;;;;;;;;;;341971;28;1361;-71
2023/11/13 21:01:50;;;;;;;15.80;7.22;;;;;;;;;;342267;28;1315;-70
2023/11/13 21:02:05;;;;;;;17.75;7.53;;;;;;;;;;340984;29;1345;-71
2023/11/13 21:02:16;;;;;;;20.27;7.80;;;;;;;;;;339555;29;1457;-70
2023/11/13 21:02:28;;;;;;;20.30;7.68;;;;;;;;;;341020;29;1558;-71
2023/11/13 21:02:39;;;;;;;18.42;7.22;;;;;;;;;;342294;28;1695;-71
2023/11/13 21:02:50;;;;;;;17.50;7.30;;;;;;;;;;343545;28;1540;-72
2023/11/13 21:03:02;;;;;;;15.68;7.15;;;;;;;;;;342234;28;1561;-69
2023/11/13 21:03:13;;;;;;;17.73;7.25;;;;;;;;;;340954;29;1514;-69
2023/11/13 21:03:24;;;;;;;18.10;7.25;;;;;;;;;;342343;28;1557;-70
2023/11/13 21:03:36;;;;;;;20.42;7.47;;;;;;;;;;340886;29;1428;-70
2023/11/13 21:03:47;;;;;;;17.48;7.55;;;;;;;;;;340981;29;1532;-71
2023/11/13 21:03:58;;;;;;;17.23;7.40;;;;;;;;;;339579;29;1554;-70
2023/11/13 21:04:11;;;;;;;16.08;7.10;;;;;;;;;;340894;29;1416;-70
2023/11/13 21:04:22;;;;;;;15.18;6.82;;;;;;;;;;340929;29;1302;-69
2023/11/13 21:04:33;;;;;;;13.88;6.45;;;;;;;;;;341036;28;1532;-69
2023/11/13 21:04:45;;;;;;;14.98;6.40;;;;;;;;;;340901;29;1625;-69
2023/11/13 21:04:56;;;;;;;16.83;6.68;;;;;;;;;;341020;28;1201;-69
2023/11/13 21:05:08;;;;;;;18.98;7.32;;;;;;;;;;339568;29;1522;-70
2023/11/13 21:05:19;;;;;;;21.23;7.60;;;;;;;;;;340853;29;1639;-72
2023/11/13 21:05:30;;;;;;;20.85;7.97;;;;;;;;;;342157;28;1298;-69
2023/11/13 21:05:41;;;;;;;19.65;7.80;;;;;;;;;;342183;28;1490;-70
2023/11/13 21:05:52;;;;;;;16.85;7.55;;;;;;;;;;340777;29;1602;-70
2023/11/13 21:06:06;;;;;;;17.88;7.22;;;;;;;;;;343532;28;1330;-70
2023/11/13 21:06:18;;;;;;;18.17;7.05;;;;;;;;;;340813;29;1420;-70
2023/11/13 21:06:31;;;;;;;18.02;6.97;;;;;;;;;;339564;29;1652;-70
2023/11/13 21:06:43;;;;;;;16.75;6.75;;;;;;;;;;340839;29;1598;-70
2023/11/13 21:06:54;;;;;;;16.63;6.95;;;;;;;;;;343486;28;1526;-70
2023/11/13 21:07:05;;;;;;;16.33;6.97;;;;;;;;;;344808;28;1212;-69
2023/11/13 21:07:16;;;;;;;17.30;7.32;;;;;;;;;;343467;28;1288;-69
2023/11/13 21:07:27;;;;;;;17.67;7.30;;;;;;;;;;340834;28;1464;-70
2023/11/13 21:07:38;;;;;;;20.08;7.28;;;;;;;;;;342396;28;1600;-70
2023/11/13 21:07:49;;;;;;;22.98;7.03;;;;;;;;;;343553;28;1361;-71
2023/11/13 21:08:00;;;;;;;20.52;6.88;;;;;;;;;;343630;28;1405;-71
2023/11/13 21:08:11;;;;;;;17.70;6.85;;;;;;;;;;342341;28;1440;-71
2023/11/13 21:08:22;;;;;;;17.10;7.13;;;;;;;;;;342342;28;1501;-72
2023/11/13 21:08:34;;;;;;;17.42;7.50;;;;;;;;;;343487;28;1452;-70
2023/11/13 21:08:45;;;;;;;17.88;7.45;;;;;;;;;;342336;28;1425;-75
2023/11/13 21:08:56;;;;;;;18.30;7.47;;;;;;;;;;340974;29;1519;-73
2023/11/13 21:09:07;;;;;;;18.65;7.00;;;;;;;;;;342305;28;1274;-75
2023/11/13 21:09:19;;;;;;;16.80;6.53;;;;;;;;;;340878;28;1432;-73
2023/11/13 21:09:30;;;;;;;15.43;6.72;;;;;;;;;;342338;28;1653;-68
2023/11/13 21:09:41;;;;;;;16.75;6.97;;;;;;;;;;342311;28;1310;-71
2023/11/13 21:09:52;;;;;;;16.10;6.72;;;;;;;;;;342270;28;1506;-70
2023/11/13 21:10:08;;;;;;;15.40;6.85;;;;;;;;;;340910;29;1439;-72
2023/11/13 21:10:20;;;;;;;16.00;6.85;;;;;;;;;;340912;29;1343;-72
2023/11/13 21:10:32;;;;;;;16.55;7.07;;;;;;;;;;341012;29;1370;-71
2023/11/13 21:10:44;;;;;;;16.15;7.25;;;;;;;;;;342309;28;1341;-72
2023/11/13 21:10:58;;;;;;;14.20;6.90;;;;;;;;;;342234;28;1284;-70